Pagina principale
METAR-TAF:

METAR-TAF

Aeroporti :

Aeroporto Internazionale di Riga

Riga, Lettonia

latitudine: 56-55N, longitudine: 023-58E, altezza: 10 m

Osservazione

Il bollettino è stato emesso 32 minuti fa, alle 18:20 UTC
Vento 4 kt da est, variando fra est/nord-est e est/sud-est
Temperature 23°C
Umidità 47%
Pressione 1026 hPa
Visibilità 10 km o più
nessuna nube inferiore a 1500 m e nessun cumulonembo

METAR: EVRA 251820Z 09004KT 060V120 CAVOK 23/11 Q1026 NOSIG

Ora: 21:52 (18:52 UTC)

Previsione

Il bollettino è stato emesso 1 ora e 50 minuti fa, alle 17:02 UTC
Previsione valida dal 25 alle 18 UTC al 26 alle 18 UTC
Vento 10 kt da nord
Visibilità 10 km o più
nessuna nube inferiore a 1500 m e nessun cumulonembo
Evoluzione graduale
dal 25 alle 19 UTC al 25 alle 20 UTC
Vento 5 kt da est

TAF: EVRA 251702Z 2518/2618 36010KT CAVOK BECMG 2519/2520 10005KT

Osservazioni e previsioni meteorologiche di più di 4000 aeroporti (messaggi METAR e TAF).

Le stazioni disponibili sono rappresentate dai dischi gialli e rossi sulla carta.

Puntare il mouse per vedere il nome della stazione.

Clicca sopra per visualizzare le osservazioni e previsioni meteorologiche.

Per cambiare la mappa : fare clic sui pulsanti verdi con una croce nera per ingrandire, il pulsante verde con un trattino per diminuire, o sulla freccia verde per le mappe adiacenti.


METAR-TAF: